Time;durP1;ratioP1;P1;durP2;ratioP2;P2;SDS_P1;SDS_P2;PMS_P1;PMS_P2;Temp;Humidity;BMP_temperature;BMP_pressure;BME280_temperature;BME280_humidity;BME280_pressure;Samples;Min_cycle;Max_cycle;Signal;HPM_P1;HPM_P2
2022/08/19 00:00:14;;;;;;;8.38;7.13;;;;;;;15.55;100.00;101414.03;4936925;28;20249;-79
2022/08/19 00:02:43;;;;;;;11.30;7.90;;;;;;;15.53;100.00;101412.28;4948580;28;20393;-79
2022/08/19 00:05:19;;;;;;;8.32;7.53;;;;;;;15.51;100.00;101414.06;4972865;28;20053;-79
2022/08/19 00:07:49;;;;;;;12.30;9.38;;;;;;;15.49;100.00;101408.75;4974911;28;20046;-79
2022/08/19 00:10:20;;;;;;;10.98;8.85;;;;;;;15.47;100.00;101397.28;4951693;28;20046;-79
2022/08/19 00:12:48;;;;;;;;;;;;;;;15.45;100.00;101401.72;4978883;28;20038;-79
2022/08/19 00:15:19;;;;;;;8.60;7.78;;;;;;;15.42;100.00;101399.06;4933572;28;19922;-79
2022/08/19 00:17:48;;;;;;;8.75;7.47;;;;;;;15.39;100.00;101399.13;4983625;28;20053;-80
2022/08/19 00:20:21;;;;;;;7.78;6.93;;;;;;;15.37;100.00;101408.88;4984773;28;20057;-79
2022/08/19 00:22:50;;;;;;;10.45;7.88;;;;;;;15.35;100.00;101402.69;4934959;28;20408;-79
2022/08/19 00:25:18;;;;;;;8.50;7.63;;;;;;;15.33;100.00;101409.78;4965930;28;20543;-79
2022/08/19 00:27:58;;;;;;;14.05;8.73;;;;;;;15.31;100.00;101408.91;4954349;28;20362;-79
2022/08/19 00:30:27;;;;;;;8.02;7.22;;;;;;;15.30;100.00;101405.38;4936104;28;20058;-79
2022/08/19 00:32:57;;;;;;;8.02;7.22;;;;;;;15.28;100.00;101401.84;4977632;28;20045;-79
2022/08/19 00:35:27;;;;;;;10.00;7.95;;;;;;;15.26;100.00;101402.78;4970924;28;20033;-79
2022/08/19 00:37:55;;;;;;;11.02;7.32;;;;;;;15.24;100.00;101397.47;4959107;28;20049;-79
2022/08/19 00:40:24;;;;;;;9.80;7.18;;;;;;;15.23;100.00;101401.00;5002970;28;20057;-79
2022/08/19 00:42:53;;;;;;;10.00;7.85;;;;;;;15.21;100.00;101405.44;5008073;28;20093;-79
2022/08/19 00:45:26;;;;;;;9.23;7.55;;;;;;;15.18;100.00;101395.72;4987145;28;20057;-79
2022/08/19 00:47:54;;;;;;;9.05;7.85;;;;;;;15.16;100.00;101391.31;4963082;28;20216;-79
2022/08/19 00:50:24;;;;;;;9.13;7.97;;;;;;;15.14;100.00;101391.34;5020319;28;20414;-78
2022/08/19 00:52:53;;;;;;;8.57;7.72;;;;;;;15.13;100.00;101389.56;5004721;28;20411;-80
2022/08/19 00:55:28;;;;;;;8.73;7.93;;;;;;;15.13;100.00;101388.69;4978533;28;20073;-79
2022/08/19 00:58:01;;;;;;;9.15;8.10;;;;;;;15.11;100.00;101386.03;5000511;28;20457;-78
2022/08/19 01:00:36;;;;;;;9.75;8.55;;;;;;;15.11;100.00;101382.50;5005279;28;20506;-78
2022/08/19 01:03:10;;;;;;;8.70;7.85;;;;;;;15.10;100.00;101389.56;4984317;28;20050;-78
2022/08/19 01:05:41;;;;;;;9.68;8.00;;;;;;;15.08;100.00;101383.41;5003216;28;20398;-79
2022/08/19 01:08:12;;;;;;;9.40;8.45;;;;;;;15.06;100.00;101384.31;5006216;28;20073;-79
2022/08/19 01:10:44;;;;;;;12.55;8.93;;;;;;;15.03;100.00;101379.91;4979962;28;20496;-79
2022/08/19 01:13:20;;;;;;;11.10;7.88;;;;;;;15.00;100.00;101380.81;5006780;28;20041;-79
2022/08/19 01:15:54;;;;;;;9.75;8.45;;;;;;;14.98;100.00;101387.03;5005528;28;20391;-80
2022/08/19 01:18:24;;;;;;;8.95;8.05;;;;;;;14.95;100.00;101384.38;4954833;28;20042;-79
2022/08/19 01:20:57;;;;;;;9.50;8.68;;;;;;;14.93;100.00;101384.41;4997447;28;20045;-79
2022/08/19 01:23:42;;;;;;;10.40;9.07;;;;;;;14.93;100.00;101386.16;5008952;28;20053;-78
2022/08/19 01:26:22;;;;;;;12.65;10.02;;;;;;;14.92;100.00;101381.75;5011962;28;20704;-78
2022/08/19 01:28:55;;;;;;;10.65;8.48;;;;;;;14.90;100.00;101372.94;4981356;28;20065;-78
2022/08/19 01:31:31;;;;;;;10.18;9.13;;;;;;;14.88;100.00;101380.91;4990690;28;20041;-80
2022/08/19 01:34:01;;;;;;;10.68;9.50;;;;;;;14.87;100.00;101373.81;4974959;28;20038;-78
2022/08/19 01:36:41;;;;;;;11.05;9.25;;;;;;;14.89;100.00;101374.69;5008391;28;20046;-79
2022/08/19 01:39:16;;;;;;;10.15;8.65;;;;;;;14.89;100.00;101376.47;5018077;28;20243;-79
2022/08/19 01:41:44;;;;;;;9.85;7.80;;;;;;;14.89;100.00;101379.13;4982739;28;20045;-80
2022/08/19 01:44:13;;;;;;;8.43;7.53;;;;;;;14.88;100.00;101388.84;4991210;28;20037;-79
2022/08/19 01:46:48;;;;;;;9.95;9.05;;;;;;;14.87;100.00;101373.81;5021170;28;20524;-80
2022/08/19 01:49:19;;;;;;;11.73;9.52;;;;;;;14.90;100.00;101375.59;4973800;28;20057;-79
2022/08/19 01:51:49;;;;;;;11.32;8.77;;;;;;;14.90;100.00;101367.63;5019620;28;20053;-79
2022/08/19 01:54:21;;;;;;;9.90;8.90;;;;;;;14.90;100.00;101365.84;4998804;28;20048;-79
2022/08/19 01:57:07;;;;;;;11.05;9.23;;;;;;;14.89;100.00;101373.81;4997090;28;20536;-79
2022/08/19 01:59:36;;;;;;;14.55;9.88;;;;;;;14.89;100.00;101369.38;5011352;28;20054;-80
2022/08/19 02:02:07;;;;;;;13.18;10.20;;;;;;;14.91;100.00;101372.03;4992731;28;20335;-79
2022/08/19 02:04:37;;;;;;;12.82;9.88;;;;;;;14.90;100.00;101367.63;4973432;28;20034;-80
2022/08/19 02:07:07;;;;;;;12.10;9.25;;;;;;;14.91;100.00;101379.97;4999886;28;20089;-79
2022/08/19 02:09:36;;;;;;;11.95;9.98;;;;;;;14.90;100.00;101375.59;4979402;28;20073;-79
2022/08/19 02:12:07;;;;;;;13.52;10.85;;;;;;;14.90;100.00;101381.75;5010986;28;20041;-79
2022/08/19 02:14:38;;;;;;;16.67;11.13;;;;;;;14.89;100.00;101382.63;4981869;28;20049;-80
2022/08/19 02:17:07;;;;;;;14.82;10.75;;;;;;;14.90;100.00;101378.25;4960766;28;20042;-79
2022/08/19 02:19:35;;;;;;;14.43;10.35;;;;;;;14.90;100.00;101378.25;4984399;28;20034;-79
2022/08/19 02:22:08;;;;;;;12.82;10.52;;;;;;;14.90;100.00;101384.41;4994472;28;20511;-79
2022/08/19 02:24:36;;;;;;;11.30;9.43;;;;;;;14.90;100.00;101375.59;4958504;28;20040;-79
2022/08/19 02:27:08;;;;;;;15.60;10.50;;;;;;;14.88;100.00;101372.06;4997470;28;20546;-78
2022/08/19 02:29:36;;;;;;;12.00;10.25;;;;;;;14.87;100.00;101362.31;4973039;28;20049;-79
2022/08/19 02:32:05;;;;;;;13.27;9.98;;;;;;;14.86;100.00;101360.53;4980605;28;20462;-80
2022/08/19 02:34:34;;;;;;;12.90;10.35;;;;;;;14.85;100.00;101374.72;4982967;28;20049;-78
2022/08/19 02:37:02;;;;;;;11.25;10.15;;;;;;;14.82;100.00;101376.50;4943052;28;20041;-78
2022/08/19 02:39:31;;;;;;;12.50;9.18;;;;;;;14.80;100.00;101380.94;5016690;28;20042;-79
2022/08/19 02:42:01;;;;;;;13.27;10.57;;;;;;;14.79;100.00;101384.47;4993420;28;20232;-78
2022/08/19 02:44:33;;;;;;;11.15;9.57;;;;;;;14.77;100.00;101385.38;4971556;28;20043;-78
2022/08/19 02:47:02;;;;;;;11.02;9.35;;;;;;;14.75;100.00;101393.34;4980799;28;20053;-79
2022/08/19 02:49:31;;;;;;;12.45;9.00;;;;;;;14.75;100.00;101392.47;5005317;28;20041;-79
2022/08/19 02:52:03;;;;;;;10.40;8.77;;;;;;;14.74;100.00;101393.34;4953420;28;20179;-78
2022/08/19 02:54:32;;;;;;;13.30;9.10;;;;;;;14.71;100.00;101396.91;4992817;28;20076;-79
2022/08/19 02:57:00;;;;;;;11.90;9.20;;;;;;;14.70;100.00;101394.25;4979432;28;20045;-78
2022/08/19 02:59:30;;;;;;;12.13;9.38;;;;;;;14.70;100.00;101386.28;5026873;28;20052;-79
2022/08/19 03:01:59;;;;;;;12.53;8.63;;;;;;;14.68;100.00;101388.06;4995379;28;20160;-78
2022/08/19 03:04:29;;;;;;;10.35;8.40;;;;;;;14.67;100.00;101384.56;5032475;28;20289;-78
2022/08/19 03:06:57;;;;;;;11.98;9.20;;;;;;;14.64;100.00;101378.38;4939857;28;20065;-78
2022/08/19 03:09:38;;;;;;;;;;;;;;;14.60;100.00;101380.16;4982106;28;20038;-79
2022/08/19 03:12:06;;;;;;;10.77;9.65;;;;;;;14.59;100.00;101376.63;4973374;28;19928;-78
2022/08/19 03:14:36;;;;;;;10.40;8.20;;;;;;;14.57;100.00;101369.56;5000111;28;20351;-78
2022/08/19 03:17:05;;;;;;;10.57;9.35;;;;;;;14.56;100.00;101373.09;4996816;28;20258;-79
2022/08/19 03:19:33;;;;;;;11.75;9.63;;;;;;;14.55;100.00;101371.31;5001019;28;20046;-78
2022/08/19 03:22:03;;;;;;;9.27;7.95;;;;;;;14.55;100.00;101376.59;4957031;28;25376;-79
2022/08/19 03:24:32;;;;;;;9.95;8.52;;;;;;;14.52;100.00;101379.28;4980738;28;20033;-80
2022/08/19 03:27:02;;;;;;;9.50;8.57;;;;;;;14.50;100.00;101375.75;4998234;28;20248;-79
2022/08/19 03:29:31;;;;;;;12.23;8.32;;;;;;;14.47;100.00;101368.69;5003878;28;20514;-78
2022/08/19 03:32:03;;;;;;;10.77;8.05;;;;;;;14.45;100.00;101364.28;4956811;28;20354;-79
2022/08/19 03:34:34;;;;;;;9.70;8.63;;;;;;;14.42;100.00;101371.38;4980266;28;20061;-80
2022/08/19 03:37:06;;;;;;;10.93;8.93;;;;;;;14.41;100.00;101368.72;4978105;28;20040;-79
2022/08/19 03:39:37;;;;;;;9.50;8.50;;;;;;;14.40;100.00;101373.16;4920173;28;20388;-79
2022/08/19 03:42:06;;;;;;;10.55;8.55;;;;;;;14.40;100.00;101389.06;4977407;28;20566;-79
2022/08/19 03:44:54;;;;;;;12.77;8.43;;;;;;;14.38;100.00;101385.50;4969312;28;20038;-78
2022/08/19 03:47:23;;;;;;;9.65;8.55;;;;;;;14.37;100.00;101383.75;4947396;28;20396;-79
2022/08/19 03:49:51;;;;;;;10.05;9.02;;;;;;;14.37;100.00;101382.88;4983974;28;20046;-80
2022/08/19 03:52:19;;;;;;;14.35;8.98;;;;;;;14.36;100.00;101376.69;4968952;28;20059;-79
2022/08/19 03:54:48;;;;;;;10.93;8.82;;;;;;;14.35;100.00;101396.16;4934400;28;20072;-80
2022/08/19 03:57:16;;;;;;;9.57;8.43;;;;;;;14.33;100.00;101384.66;4954098;28;20047;-79
2022/08/19 03:59:45;;;;;;;9.45;8.55;;;;;;;14.31;100.00;101389.09;4957031;28;20052;-80
2022/08/19 04:02:14;;;;;;;11.57;8.30;;;;;;;14.31;100.00;101388.19;4936465;28;20873;-80
2022/08/19 04:04:43;;;;;;;9.50;8.60;;;;;;;14.29;100.00;101380.28;4982869;28;20512;-79
2022/08/19 04:07:15;;;;;;;10.95;8.40;;;;;;;14.29;100.00;101380.28;4959590;28;20184;-79
2022/08/19 04:09:44;;;;;;;11.32;8.50;;;;;;;14.29;100.00;101374.06;4906798;28;20056;-79
2022/08/19 04:12:12;;;;;;;10.73;8.68;;;;;;;14.27;100.00;101366.13;4984793;28;20046;-79
2022/08/19 04:14:41;;;;;;;10.30;9.10;;;;;;;14.26;100.00;101368.78;4962441;28;20043;-80
2022/08/19 04:17:12;;;;;;;10.88;9.80;;;;;;;14.24;100.00;101379.41;4936026;28;20226;-78
2022/08/19 04:19:42;;;;;;;12.02;10.15;;;;;;;14.26;100.00;101379.41;4962584;28;20057;-79
2022/08/19 04:22:11;;;;;;;11.10;9.52;;;;;;;14.27;100.00;101371.41;4968753;28;20039;-80
2022/08/19 04:24:40;;;;;;;14.70;10.18;;;;;;;14.26;100.00;101374.97;4934974;28;20042;-79
2022/08/19 04:27:09;;;;;;;12.73;9.75;;;;;;;14.26;100.00;101385.56;4945320;28;20187;-79
2022/08/19 04:29:39;;;;;;;11.60;9.70;;;;;;;14.25;100.00;101378.50;4957321;28;20038;-80
2022/08/19 04:32:07;;;;;;;11.55;9.75;;;;;;;14.23;100.00;101381.16;4979724;28;20077;-80
2022/08/19 04:34:37;;;;;;;10.40;9.27;;;;;;;14.26;100.00;101376.75;4958413;28;20053;-81
2022/08/19 04:37:27;;;;;;;14.18;10.73;;;;;;;14.26;100.00;101369.66;4985037;28;20400;-78
2022/08/19 04:42:53;;;;;;;12.57;10.75;;;;;;;14.29;100.00;101372.31;4961199;28;20047;-79
2022/08/19 04:45:22;;;;;;;14.40;11.70;;;;;;;14.31;100.00;101370.53;4990981;28;20038;-80
2022/08/19 04:47:56;;;;;;;15.90;12.82;;;;;;;14.33;100.00;101359.91;4988116;28;20306;-80
2022/08/19 04:50:44;;;;;;;17.90;12.80;;;;;;;14.33;100.00;101355.50;4979967;28;20045;-79
2022/08/19 04:53:13;;;;;;;14.98;11.90;;;;;;;14.38;100.00;101348.38;4979447;28;20041;-78
2022/08/19 04:55:42;;;;;;;13.75;11.07;;;;;;;14.42;100.00;101344.88;4932815;28;20042;-80
2022/08/19 04:58:12;;;;;;;15.02;11.38;;;;;;;14.44;100.00;101342.19;4992609;28;20561;-80
2022/08/19 05:00:47;;;;;;;12.27;10.32;;;;;;;14.47;100.00;101349.25;4959056;28;20031;-81
2022/08/19 05:03:16;;;;;;;16.35;11.27;;;;;;;14.50;100.00;101349.22;4969260;28;20046;-78
2022/08/19 05:05:48;;;;;;;16.23;11.75;;;;;;;14.55;100.00;101350.97;4973318;28;20057;-79
2022/08/19 05:08:20;;;;;;;16.35;11.23;;;;;;;14.61;100.00;101355.38;4965178;28;20054;-78
2022/08/19 05:10:58;;;;;;;20.75;12.02;;;;;;;14.68;100.00;101353.59;4932653;28;21738;-79
2022/08/19 05:13:27;;;;;;;15.05;11.80;;;;;;;14.71;100.00;101357.13;4991276;28;20050;-79
2022/08/19 05:15:57;;;;;;;16.20;11.23;;;;;;;14.75;100.00;101342.06;4965061;28;20038;-79
2022/08/19 05:24:08;;;;;;;12.75;10.23;;;;;;;14.83;100.00;101356.16;4988270;28;20184;-78
2022/08/19 05:26:39;;;;;;;12.50;9.82;;;;;;;14.88;100.00;101361.44;4954113;28;20361;-79
2022/08/19 05:29:09;;;;;;;15.57;10.50;;;;;;;14.91;100.00;101354.31;4969136;28;20070;-80
2022/08/19 05:31:38;;;;;;;17.42;11.15;;;;;;;14.97;100.00;101358.69;4970644;28;20050;-79
2022/08/19 05:34:09;;;;;;;;;;;;;;;15.04;100.00;101348.94;4985802;28;20685;-78
2022/08/19 05:36:49;;;;;;;15.60;11.02;;;;;;;15.10;100.00;101344.44;4959210;28;19928;-79
2022/08/19 05:39:20;;;;;;;15.95;10.20;;;;;;;15.16;100.00;101348.84;4951250;28;20488;-79
2022/08/19 05:41:52;;;;;;;14.30;10.00;;;;;;;15.21;100.00;101339.94;4928161;28;20400;-80
2022/08/19 05:44:21;;;;;;;13.85;9.98;;;;;;;15.29;100.00;101334.59;4981954;28;20065;-81
2022/08/19 05:46:52;;;;;;;12.98;10.05;;;;;;;15.37;100.00;101335.41;4985622;28;20048;-77
2022/08/19 05:49:22;;;;;;;13.40;11.02;;;;;;;15.46;100.00;101339.72;4982032;28;20061;-80
2022/08/19 05:51:51;;;;;;;17.38;12.65;;;;;;;15.55;100.00;101341.44;4952446;28;20045;-79
2022/08/19 05:54:22;;;;;;;15.70;11.30;;;;;;;15.64;100.00;101343.13;4953299;28;20054;-78
2022/08/19 05:56:53;;;;;;;15.70;11.55;;;;;;;15.74;100.00;101344.81;4966967;28;20038;-78
2022/08/19 05:59:22;;;;;;;17.25;11.88;;;;;;;15.83;100.00;101335.88;4926950;28;20046;-80
2022/08/19 06:01:54;;;;;;;;;;;;;;;15.94;100.00;101333.97;4953116;28;20486;-80
2022/08/19 06:04:22;;;;;;;12.65;9.77;;;;;;;16.10;100.00;101335.53;4961610;28;19926;-80
2022/08/19 06:06:53;;;;;;;13.18;9.88;;;;;;;16.37;100.00;101337.00;4987498;28;20057;-79
2022/08/19 06:09:24;;;;;;;13.90;9.80;;;;;;;16.54;100.00;101336.78;4955228;28;20045;-80
2022/08/19 06:11:59;;;;;;;12.32;9.40;;;;;;;16.75;100.00;101329.41;4975541;28;20042;-80
2022/08/19 06:14:34;;;;;;;9.85;8.43;;;;;;;16.96;100.00;101328.22;4947997;28;20165;-80
2022/08/19 06:17:08;;;;;;;9.82;8.43;;;;;;;17.04;100.00;101326.31;4958974;28;20046;-80
2022/08/19 06:19:37;;;;;;;9.05;7.35;;;;;;;17.14;100.00;101333.25;4946622;28;20081;-80
2022/08/19 06:22:11;;;;;;;10.55;8.07;;;;;;;17.21;100.00;101326.03;4972487;28;20042;-80
2022/08/19 06:24:40;;;;;;;10.35;8.13;;;;;;;17.26;100.00;101331.28;4958186;28;20047;-80
2022/08/19 06:27:08;;;;;;;8.77;7.32;;;;;;;17.33;100.00;101332.94;4977823;28;20060;-81
2022/08/19 06:29:37;;;;;;;9.30;8.35;;;;;;;17.40;100.00;101334.59;4960164;28;20052;-79
2022/08/19 06:32:06;;;;;;;9.07;8.15;;;;;;;17.46;100.00;101328.28;4953075;28;20539;-81
2022/08/19 06:34:34;;;;;;;8.60;7.80;;;;;;;17.51;100.00;101321.94;4980410;28;20492;-80
2022/08/19 06:37:05;;;;;;;9.35;7.97;;;;;;;17.58;100.00;101322.72;4942396;28;20051;-80
2022/08/19 06:39:35;;;;;;;;;;;;;;;17.79;100.00;101323.22;4940613;28;20029;-80
2022/08/19 06:42:08;;;;;;;9.57;7.80;;;;;;;17.98;100.00;101326.47;4973516;28;19925;-80
2022/08/19 06:44:40;;;;;;;7.95;7.13;;;;;;;18.04;100.00;101329.88;4975347;28;20047;-80
2022/08/19 06:47:14;;;;;;;11.52;7.53;;;;;;;18.13;100.00;101331.47;4959812;28;20153;-80
2022/08/19 06:50:02;;;;;;;12.05;7.43;;;;;;;18.17;100.00;101338.50;4988690;28;20069;-80
2022/08/19 06:52:34;;;;;;;9.60;7.57;;;;;;;18.20;100.00;101329.53;4954852;28;20039;-80
2022/08/19 06:55:04;;;;;;;8.80;7.03;;;;;;;18.27;100.00;101340.06;4973330;28;20730;-80
2022/08/19 06:57:34;;;;;;;10.50;8.05;;;;;;;18.38;100.00;101333.63;4986834;28;20062;-81
2022/08/19 07:00:05;;;;;;;11.75;9.13;;;;;;;18.46;100.00;101337.00;4949023;28;20051;-80
2022/08/19 07:02:41;;;;;;;11.10;8.63;;;;;;;18.54;100.00;101335.03;4985392;28;20053;-81
2022/08/19 07:05:18;;;;;;;10.90;8.18;;;;;;;18.63;100.00;101331.28;4947469;28;20030;-81
2022/08/19 07:07:48;;;;;;;9.43;8.43;;;;;;;18.71;100.00;101323.97;4979527;28;20049;-82
2022/08/19 07:10:19;;;;;;;8.77;7.88;;;;;;;18.79;100.00;101334.47;4969470;28;20291;-80
2022/08/19 07:12:49;;;;;;;9.85;8.25;;;;;;;18.89;100.00;101338.75;4983234;28;20526;-80
2022/08/19 07:15:21;;;;;;;13.45;8.55;;;;;;;18.98;100.00;101333.19;4983152;28;20054;-80
2022/08/19 07:17:51;;;;;;;10.15;8.90;;;;;;;19.08;100.00;101332.03;4914564;28;20061;-81
2022/08/19 07:20:20;;;;;;;10.85;8.23;;;;;;;19.19;100.00;101333.56;4961782;28;20050;-81
2022/08/19 07:22:55;;;;;;;9.10;8.10;;;;;;;19.29;100.00;101327.06;4959015;28;20049;-81
2022/08/19 07:25:24;;;;;;;9.52;8.65;;;;;;;19.38;100.00;101329.50;4945348;28;20046;-79
2022/08/19 07:28:01;;;;;;;12.20;8.40;;;;;;;19.50;100.00;101330.09;4950751;28;20192;-81
2022/08/19 07:30:30;;;;;;;15.48;9.50;;;;;;;19.63;100.00;101328.88;4971862;28;20045;-80
2022/08/19 07:32:59;;;;;;;11.00;8.55;;;;;;;19.74;100.00;101332.16;4958117;28;20297;-80
2022/08/19 07:35:33;;;;;;;10.15;8.43;;;;;;;19.85;100.00;101337.22;4964338;28;20053;-81
2022/08/19 07:38:04;;;;;;;8.87;7.70;;;;;;;19.91;100.00;101341.53;4954264;28;20417;-79
2022/08/19 07:40:33;;;;;;;;;;;;;;;19.99;100.00;101344.84;4963938;28;20050;-80
2022/08/19 07:43:02;;;;;;;9.73;7.90;;;;;;;20.04;100.00;101340.25;4961558;28;19929;-82
2022/08/19 07:45:32;;;;;;;10.57;8.15;;;;;;;20.09;100.00;101340.13;4983166;28;20382;-82
2022/08/19 07:48:00;;;;;;;10.65;7.90;;;;;;;20.17;100.00;101346.09;4940703;28;20038;-81
2022/08/19 07:50:29;;;;;;;9.15;8.05;;;;;;;20.22;100.00;101350.41;4951384;28;20518;-82
2022/08/19 07:52:58;;;;;;;8.88;7.80;;;;;;;20.28;100.00;101352.03;4969198;28;20053;-83
2022/08/19 07:55:28;;;;;;;8.07;7.22;;;;;;;20.34;100.00;101353.66;4964307;28;20053;-79
2022/08/19 07:58:17;;;;;;;8.32;7.32;;;;;;;20.41;100.00;101352.56;4937129;28;20026;-80
2022/08/19 08:00:48;;;;;;;8.18;7.38;;;;;;;20.48;100.00;101361.28;4952359;28;20030;-81
2022/08/19 08:09:10;;;;;;;9.32;7.40;;;;;;;20.55;100.00;101363.72;4964387;28;20061;-81
2022/08/19 08:11:49;;;;;;;7.63;6.93;;;;;;;20.84;100.00;101373.56;4974853;28;20046;-81
2022/08/19 08:14:25;;;;;;;8.35;7.55;;;;;;;20.91;100.00;101368.03;4969816;28;20038;-80
2022/08/19 08:17:04;;;;;;;8.10;7.40;;;;;;;21.01;100.00;101370.34;4977963;28;20042;-80
2022/08/19 08:19:40;;;;;;;9.18;7.50;;;;;;;21.10;100.00;101373.69;4943926;28;20053;-82
2022/08/19 08:23:21;;;;;;;8.20;7.35;;;;;;;21.18;100.00;101372.50;4962075;28;20062;-80
2022/08/19 08:25:08;;;;;;;8.38;6.93;;;;;;;21.30;100.00;101376.56;4953104;28;20295;-80
2022/08/19 08:27:39;;;;;;;8.77;7.72;;;;;;;21.37;100.00;101378.13;4968917;28;20046;-80
2022/08/19 08:30:10;;;;;;;8.15;7.43;;;;;;;21.46;100.00;101378.78;4980870;28;20042;-81
2022/08/19 08:32:39;;;;;;;7.53;6.82;;;;;;;21.56;100.00;101374.84;4982510;28;20039;-81
2022/08/19 08:35:12;;;;;;;8.73;6.95;;;;;;;21.68;100.00;101373.53;4920921;28;20052;-82
2022/08/19 08:37:40;;;;;;;11.82;7.35;;;;;;;21.78;100.00;101381.22;4961181;28;20053;-81
2022/08/19 08:40:35;;;;;;;11.60;7.22;;;;;;;21.90;100.00;101377.22;4985210;28;20043;-81
2022/08/19 08:43:37;;;;;;;8.88;8.05;;;;;;;22.00;100.00;101384.03;4970097;28;20041;-79
2022/08/19 08:46:16;;;;;;;10.50;7.25;;;;;;;22.08;100.00;101386.44;4989708;28;20061;-83
2022/08/19 08:49:21;;;;;;;8.10;7.28;;;;;;;22.15;100.00;101379.88;4990249;28;20589;-80
2022/08/19 08:52:25;;;;;;;9.38;7.50;;;;;;;22.22;100.00;101385.91;4991071;28;20397;-79
2022/08/19 08:55:19;;;;;;;9.13;8.10;;;;;;;22.29;100.00;101387.47;4978003;28;20053;-81
2022/08/19 08:57:49;;;;;;;9.68;7.68;;;;;;;22.35;100.00;101394.44;4967920;28;20045;-81
2022/08/19 09:00:22;;;;;;;10.05;7.75;;;;;;;22.45;100.00;101386.91;4954986;28;20070;-81
2022/08/19 09:02:51;;;;;;;9.50;8.50;;;;;;;22.57;100.00;101397.16;4958295;28;20050;-80
2022/08/19 09:05:25;;;;;;;11.05;8.13;;;;;;;22.66;100.00;101390.56;4918058;28;20069;-80
2022/08/19 09:08:35;;;;;;;7.70;6.90;;;;;;;22.75;100.00;101388.41;4978614;28;20053;-81
2022/08/19 09:11:08;;;;;;;7.70;7.00;;;;;;;22.80;100.00;101380.19;4978906;28;20054;-80
2022/08/19 09:14:15;;;;;;;8.77;7.85;;;;;;;22.85;100.00;101393.41;4965841;28;20252;-80
2022/08/19 09:17:07;;;;;;;8.82;7.97;;;;;;;22.90;100.00;101381.53;4958208;28;20023;-80
2022/08/19 09:20:06;;;;;;;7.50;6.72;;;;;;;22.95;100.00;101390.31;4969106;28;20046;-80
2022/08/19 09:22:38;;;;;;;9.43;8.13;;;;;;;23.04;100.00;101385.53;4951642;28;20570;-80
2022/08/19 09:25:08;;;;;;;7.90;6.95;;;;;;;23.10;100.00;101388.84;4976569;28;20058;-81
2022/08/19 09:27:38;;;;;;;;;;;;;;;23.18;100.00;101384.97;4965691;28;20038;-81
2022/08/19 09:30:18;;;;;;;7.80;7.00;;;;;;;23.23;100.00;101388.34;4951769;28;19933;-82
2022/08/19 09:32:46;;;;;;;10.32;7.72;;;;;;;23.28;100.00;101384.50;4971096;28;20057;-79
2022/08/19 09:35:22;;;;;;;8.23;7.13;;;;;;;23.34;100.00;101386.06;4970940;28;20054;-81
2022/08/19 09:37:51;;;;;;;7.88;7.10;;;;;;;23.37;100.00;101382.41;4963018;28;20046;-81
2022/08/19 09:40:28;;;;;;;7.35;5.78;;;;;;;23.41;100.00;101378.63;4960708;28;20026;-80
2022/08/19 09:43:00;;;;;;;7.30;5.35;;;;;;;23.44;100.00;101375.81;4964616;28;20046;-80
2022/08/19 09:45:29;;;;;;;6.82;4.80;;;;;;;23.52;100.00;101376.38;4947472;28;20098;-80
2022/08/19 09:47:57;;;;;;;6.78;6.07;;;;;;;23.62;100.00;101384.91;4969552;28;20050;-79
2022/08/19 09:50:38;;;;;;;5.80;5.28;;;;;;;23.69;100.00;101375.66;4986989;28;20061;-80
2022/08/19 09:53:22;;;;;;;6.00;4.55;;;;;;;23.79;100.00;101386.91;4927298;28;20043;-80
2022/08/19 09:55:55;;;;;;;5.00;4.60;;;;;;;23.82;100.00;101382.28;4960253;28;20046;-79
2022/08/19 09:58:27;;;;;;;6.13;5.00;;;;;;;23.89;100.00;101381.06;4950906;28;20050;-79
2022/08/19 10:00:58;;;;;;;4.10;3.22;;;;;;;23.96;100.00;101378.09;4948050;28;20038;-80
2022/08/19 10:03:29;;;;;;;4.03;3.17;;;;;;;24.03;100.00;101377.75;4934488;28;20709;-79
2022/08/19 10:06:04;;;;;;;4.22;3.92;;;;;;;24.13;100.00;101379.06;4975398;28;20041;-78
2022/08/19 10:08:43;;;;;;;7.28;3.65;;;;;;;24.22;100.00;101374.25;4943840;28;20041;-80
2022/08/19 10:11:20;;;;;;;4.80;4.30;;;;;;;24.31;100.00;101368.44;4951243;28;20039;-79
2022/08/19 10:13:56;;;;;;;3.53;3.22;;;;;;;24.38;100.00;101364.50;4964976;28;20050;-79
2022/08/19 10:16:25;;;;;;;4.15;3.75;;;;;;;24.46;100.00;101362.34;4928635;28;20073;-79
2022/08/19 10:18:58;;;;;;;6.35;4.25;;;;;;;24.51;100.00;101375.56;4968488;28;20392;-79
2022/08/19 10:21:34;;;;;;;5.40;3.78;;;;;;;24.57;100.00;101369.06;4968309;28;20434;-79
2022/08/19 10:24:05;;;;;;;8.15;3.85;;;;;;;24.65;100.00;101365.06;4919918;28;20053;-79
2022/08/19 10:26:37;;;;;;;4.00;3.50;;;;;;;24.72;100.00;101368.31;4962340;28;20050;-79
2022/08/19 10:29:06;;;;;;;4.72;2.85;;;;;;;24.82;100.00;101369.66;4963323;28;20046;-78
2022/08/19 10:31:39;;;;;;;4.03;3.55;;;;;;;24.89;99.97;101365.69;4970279;28;20042;-79
2022/08/19 10:34:28;;;;;;;4.75;3.78;;;;;;;24.98;99.63;101361.66;4983965;28;20272;-80
2022/08/19 10:37:00;;;;;;;4.25;3.30;;;;;;;25.02;99.82;101357.00;4952029;28;20058;-81
2022/08/19 10:39:30;;;;;;;4.72;3.45;;;;;;;25.10;99.42;101368.28;4924121;28;20055;-80
2022/08/19 10:42:11;;;;;;;3.85;3.55;;;;;;;25.21;99.19;101362.34;4990234;28;20054;-81
2022/08/19 10:44:40;;;;;;;4.18;3.78;;;;;;;25.28;98.82;101362.00;4975369;28;20054;-80
2022/08/19 10:47:09;;;;;;;4.40;4.05;;;;;;;25.33;96.39;101355.50;4990257;28;20046;-81
2022/08/19 10:52:49;;;;;;;3.90;3.70;;;;;;;25.48;95.43;101347.50;4977158;28;20427;-80
2022/08/19 10:58:21;;;;;;;3.42;3.20;;;;;;;25.59;92.20;101349.63;4999742;28;20122;-80
2022/08/19 11:00:56;;;;;;;3.85;2.60;;;;;;;25.55;90.74;101347.19;4978360;28;20054;-80
2022/08/19 11:03:27;;;;;;;3.55;3.25;;;;;;;25.40;89.33;101343.44;5002732;28;20054;-80
2022/08/19 11:06:05;;;;;;;3.53;3.33;;;;;;;25.20;88.16;101355.19;4953341;28;20177;-82
2022/08/19 11:08:37;;;;;;;3.00;2.70;;;;;;;25.05;88.61;101346.06;4989323;28;20045;-81
2022/08/19 11:11:06;;;;;;;5.50;3.88;;;;;;;24.94;88.90;101352.00;4958064;28;20089;-81
2022/08/19 11:13:37;;;;;;;4.53;4.13;;;;;;;24.93;88.49;101355.63;4987164;28;20050;-81
2022/08/19 11:16:07;;;;;;;6.35;4.45;;;;;;;25.01;89.20;101353.44;4988437;28;20235;-81
2022/08/19 11:18:42;;;;;;;4.53;4.05;;;;;;;25.05;88.67;101349.63;4944173;28;20327;-80
2022/08/19 11:21:21;;;;;;;4.32;3.95;;;;;;;24.98;88.58;101352.72;4974985;28;20138;-80
2022/08/19 11:23:53;;;;;;;4.10;3.70;;;;;;;24.88;89.94;101357.69;5010236;28;20069;-80
2022/08/19 11:26:23;;;;;;;5.78;4.60;;;;;;;24.93;90.07;101350.22;4932294;28;20069;-81
2022/08/19 11:28:55;;;;;;;4.15;3.72;;;;;;;25.08;91.15;101348.59;4948843;28;20050;-81
2022/08/19 11:31:27;;;;;;;4.72;4.15;;;;;;;25.29;89.60;101346.69;4985756;28;20058;-81
2022/08/19 11:34:03;;;;;;;5.15;4.70;;;;;;;25.52;89.94;101341.94;4991378;28;20263;-81
2022/08/19 11:36:33;;;;;;;4.60;4.05;;;;;;;25.74;89.08;101330.91;4982908;28;20050;-80
2022/08/19 11:39:04;;;;;;;4.57;4.18;;;;;;;25.98;88.80;101334.16;4973079;28;20042;-81
2022/08/19 11:41:33;;;;;;;5.40;4.90;;;;;;;26.16;88.01;101330.47;4975700;28;20042;-81
2022/08/19 11:44:04;;;;;;;5.15;4.75;;;;;;;26.35;87.98;101324.03;4992727;28;20542;-82
2022/08/19 11:46:32;;;;;;;9.93;6.22;;;;;;;26.48;84.77;101327.78;4992487;28;20033;-82
2022/08/19 11:49:02;;;;;;;7.15;5.32;;;;;;;26.54;84.03;101331.97;5003206;28;20049;-82
2022/08/19 11:51:32;;;;;;;4.93;4.43;;;;;;;26.58;83.30;101334.44;4977837;28;20042;-82
2022/08/19 11:54:01;;;;;;;4.97;4.57;;;;;;;26.61;83.49;101336.13;4986809;28;20348;-81
2022/08/19 11:56:29;;;;;;;7.35;5.60;;;;;;;26.57;84.45;101335.38;4975869;28;20064;-82
2022/08/19 11:58:58;;;;;;;6.43;5.82;;;;;;;26.45;82.33;101331.53;4987010;28;20326;-81